sensor_id;sensor_type;location;lat;lon;timestamp;pressure;altitude;pressure_sealevel;temperature;humidity
31121;BME280;17770;45.966;13.632;2024-01-11T00:00:48;101563.22;;;14.83;62.83
31121;BME280;17770;45.966;13.632;2024-01-11T00:03:14;101554.66;;;14.81;62.86
31121;BME280;17770;45.966;13.632;2024-01-11T00:05:40;101553.75;;;14.82;62.87
31121;BME280;17770;45.966;13.632;2024-01-11T00:08:07;101547.72;;;14.80;62.99
31121;BME280;17770;45.966;13.632;2024-01-11T00:10:33;101549.47;;;14.79;62.90
31121;BME280;17770;45.966;13.632;2024-01-11T00:12:59;101540.84;;;14.79;62.74
31121;BME280;17770;45.966;13.632;2024-01-11T00:15:25;101549.50;;;14.78;62.85
31121;BME280;17770;45.966;13.632;2024-01-11T00:17:50;101552.97;;;14.78;62.77
31121;BME280;17770;45.966;13.632;2024-01-11T00:20:16;101545.19;;;14.78;62.90
31121;BME280;17770;45.966;13.632;2024-01-11T00:22:42;101539.13;;;14.78;62.96
31121;BME280;17770;45.966;13.632;2024-01-11T00:25:08;101541.78;;;14.76;62.63
31121;BME280;17770;45.966;13.632;2024-01-11T00:27:34;101533.97;;;14.76;62.85
31121;BME280;17770;45.966;13.632;2024-01-11T00:30:00;101534.88;;;14.75;62.90
31121;BME280;17770;45.966;13.632;2024-01-11T00:32:25;101533.19;;;14.74;63.00
31121;BME280;17770;45.966;13.632;2024-01-11T00:34:51;101530.59;;;14.74;62.72
31121;BME280;17770;45.966;13.632;2024-01-11T00:37:18;101540.13;;;14.74;62.77
31121;BME280;17770;45.966;13.632;2024-01-11T00:39:44;101534.03;;;14.75;62.67
31121;BME280;17770;45.966;13.632;2024-01-11T00:42:10;101536.66;;;14.73;62.69
31121;BME280;17770;45.966;13.632;2024-01-11T00:44:35;101530.59;;;14.73;62.71
31121;BME280;17770;45.966;13.632;2024-01-11T00:47:01;101530.59;;;14.73;62.68
31121;BME280;17770;45.966;13.632;2024-01-11T00:49:27;101528.88;;;14.73;62.80
31121;BME280;17770;45.966;13.632;2024-01-11T00:51:53;101523.72;;;14.72;62.88
31121;BME280;17770;45.966;13.632;2024-01-11T00:54:19;101524.63;;;14.71;62.98
31121;BME280;17770;45.966;13.632;2024-01-11T00:56:45;101525.47;;;14.71;62.67
31121;BME280;17770;45.966;13.632;2024-01-11T00:59:10;101528.06;;;14.71;62.81
31121;BME280;17770;45.966;13.632;2024-01-11T01:01:36;101515.97;;;14.70;62.92
31121;BME280;17770;45.966;13.632;2024-01-11T01:04:03;101519.50;;;14.69;63.02
31121;BME280;17770;45.966;13.632;2024-01-11T01:06:29;101509.09;;;14.69;62.77
31121;BME280;17770;45.966;13.632;2024-01-11T01:08:55;101516.03;;;14.69;62.58
31121;BME280;17770;45.966;13.632;2024-01-11T01:11:21;101515.16;;;14.68;62.55
31121;BME280;17770;45.966;13.632;2024-01-11T01:13:47;101520.38;;;14.68;62.84
31121;BME280;17770;45.966;13.632;2024-01-11T01:16:13;101522.97;;;14.68;62.48
31121;BME280;17770;45.966;13.632;2024-01-11T01:18:40;101518.66;;;14.67;62.90
31121;BME280;17770;45.966;13.632;2024-01-11T01:21:06;101514.34;;;14.66;62.48
31121;BME280;17770;45.966;13.632;2024-01-11T01:23:32;101513.53;;;14.66;62.74
31121;BME280;17770;45.966;13.632;2024-01-11T01:25:58;101510.94;;;14.66;62.54
31121;BME280;17770;45.966;13.632;2024-01-11T01:28:24;101511.81;;;14.65;62.70
31121;BME280;17770;45.966;13.632;2024-01-11T01:30:50;101516.94;;;14.66;62.84
31121;BME280;17770;45.966;13.632;2024-01-11T01:33:16;101505.78;;;14.64;62.70
31121;BME280;17770;45.966;13.632;2024-01-11T01:35:43;101513.56;;;14.64;62.49
31121;BME280;17770;45.966;13.632;2024-01-11T01:38:09;101506.59;;;14.65;62.55
31121;BME280;17770;45.966;13.632;2024-01-11T01:40:36;101500.59;;;14.64;62.88
31121;BME280;17770;45.966;13.632;2024-01-11T01:43:06;101498.88;;;14.63;62.76
31121;BME280;17770;45.966;13.632;2024-01-11T01:45:32;101505.78;;;14.63;62.70
31121;BME280;17770;45.966;13.632;2024-01-11T01:47:58;101504.97;;;14.62;62.48
31121;BME280;17770;45.966;13.632;2024-01-11T01:50:24;101506.69;;;14.62;62.19
31121;BME280;17770;45.966;13.632;2024-01-11T01:52:51;101505.78;;;14.63;62.65
31121;BME280;17770;45.966;13.632;2024-01-11T01:55:17;101501.50;;;14.62;62.60
31121;BME280;17770;45.966;13.632;2024-01-11T01:57:45;101499.81;;;14.61;62.46
31121;BME280;17770;45.966;13.632;2024-01-11T02:00:12;101497.22;;;14.61;62.36
31121;BME280;17770;45.966;13.632;2024-01-11T02:02:41;101498.91;;;14.62;62.42
31121;BME280;17770;45.966;13.632;2024-01-11T02:05:08;101494.63;;;14.61;62.62
31121;BME280;17770;45.966;13.632;2024-01-11T02:07:36;101496.41;;;14.59;62.39
31121;BME280;17770;45.966;13.632;2024-01-11T02:10:02;101496.41;;;14.59;62.47
31121;BME280;17770;45.966;13.632;2024-01-11T02:12:29;101499.88;;;14.59;62.37
31121;BME280;17770;45.966;13.632;2024-01-11T02:14:55;101501.59;;;14.59;62.37
31121;BME280;17770;45.966;13.632;2024-01-11T02:17:21;101504.19;;;14.59;61.82
31121;BME280;17770;45.966;13.632;2024-01-11T02:19:47;101503.34;;;14.58;62.49
31121;BME280;17770;45.966;13.632;2024-01-11T02:22:24;101494.72;;;14.58;62.49
31121;BME280;17770;45.966;13.632;2024-01-11T02:24:54;101503.38;;;14.57;62.45
31121;BME280;17770;45.966;13.632;2024-01-11T02:27:22;101495.59;;;14.57;62.18
31121;BME280;17770;45.966;13.632;2024-01-11T02:29:48;101498.19;;;14.57;62.04
31121;BME280;17770;45.966;13.632;2024-01-11T02:32:14;101493.00;;;14.57;62.51
31121;BME280;17770;45.966;13.632;2024-01-11T02:34:40;101489.59;;;14.55;62.28
31121;BME280;17770;45.966;13.632;2024-01-11T02:37:06;101485.25;;;14.55;62.38
31121;BME280;17770;45.966;13.632;2024-01-11T02:39:33;101481.78;;;14.55;62.31
31121;BME280;17770;45.966;13.632;2024-01-11T02:41:59;101482.69;;;14.54;62.08
31121;BME280;17770;45.966;13.632;2024-01-11T02:44:25;101486.97;;;14.55;61.98
31121;BME280;17770;45.966;13.632;2024-01-11T02:46:51;101491.34;;;14.54;61.95
31121;BME280;17770;45.966;13.632;2024-01-11T02:49:17;101487.88;;;14.54;62.14
31121;BME280;17770;45.966;13.632;2024-01-11T02:51:43;101487.88;;;14.54;62.17
31121;BME280;17770;45.966;13.632;2024-01-11T02:54:09;101489.63;;;14.53;62.18
31121;BME280;17770;45.966;13.632;2024-01-11T02:56:35;101490.50;;;14.54;62.01
31121;BME280;17770;45.966;13.632;2024-01-11T02:59:01;101484.47;;;14.52;62.02
31121;BME280;17770;45.966;13.632;2024-01-11T03:01:27;101477.59;;;14.51;62.14
31121;BME280;17770;45.966;13.632;2024-01-11T03:03:52;101480.16;;;14.52;62.03
31121;BME280;17770;45.966;13.632;2024-01-11T03:06:18;101476.75;;;14.50;62.19
31121;BME280;17770;45.966;13.632;2024-01-11T03:08:47;101469.81;;;14.51;62.21
31121;BME280;17770;45.966;13.632;2024-01-11T03:11:14;101474.16;;;14.50;61.90
31121;BME280;17770;45.966;13.632;2024-01-11T03:13:40;101471.53;;;14.50;62.02
31121;BME280;17770;45.966;13.632;2024-01-11T03:16:06;101473.28;;;14.50;61.99
31121;BME280;17770;45.966;13.632;2024-01-11T03:18:32;101462.94;;;14.48;62.00
31121;BME280;17770;45.966;13.632;2024-01-11T03:20:57;101467.31;;;14.48;61.85
31121;BME280;17770;45.966;13.632;2024-01-11T03:23:23;101463.84;;;14.47;62.05
31121;BME280;17770;45.966;13.632;2024-01-11T03:25:49;101468.19;;;14.47;61.81
31121;BME280;17770;45.966;13.632;2024-01-11T03:28:15;101471.63;;;14.47;62.10
31121;BME280;17770;45.966;13.632;2024-01-11T03:30:42;101469.91;;;14.48;62.27
31121;BME280;17770;45.966;13.632;2024-01-11T03:33:08;101472.50;;;14.48;62.02
31121;BME280;17770;45.966;13.632;2024-01-11T03:35:34;101474.28;;;14.46;62.03
31121;BME280;17770;45.966;13.632;2024-01-11T03:38:00;101470.78;;;14.47;62.05
31121;BME280;17770;45.966;13.632;2024-01-11T03:40:26;101467.38;;;14.45;62.13
31121;BME280;17770;45.966;13.632;2024-01-11T03:42:52;101473.41;;;14.45;61.83
31121;BME280;17770;45.966;13.632;2024-01-11T03:45:18;101469.09;;;14.46;61.61
31121;BME280;17770;45.966;13.632;2024-01-11T03:47:46;101470.81;;;14.45;61.76
31121;BME280;17770;45.966;13.632;2024-01-11T03:50:12;101477.75;;;14.45;61.91
31121;BME280;17770;45.966;13.632;2024-01-11T03:52:39;101465.63;;;14.45;61.76
31121;BME280;17770;45.966;13.632;2024-01-11T03:55:05;101467.38;;;14.45;61.90
31121;BME280;17770;45.966;13.632;2024-01-11T03:57:31;101474.31;;;14.44;61.74
31121;BME280;17770;45.966;13.632;2024-01-11T03:59:57;101470.00;;;14.43;61.81
31121;BME280;17770;45.966;13.632;2024-01-11T04:02:24;101468.28;;;14.44;61.85
31121;BME280;17770;45.966;13.632;2024-01-11T04:04:50;101464.81;;;14.43;61.30
31121;BME280;17770;45.966;13.632;2024-01-11T04:07:16;101461.41;;;14.43;61.83
31121;BME280;17770;45.966;13.632;2024-01-11T04:09:42;101456.19;;;14.43;61.78
31121;BME280;17770;45.966;13.632;2024-01-11T04:12:08;101463.09;;;14.44;61.55
31121;BME280;17770;45.966;13.632;2024-01-11T04:14:37;101456.25;;;14.41;61.53
31121;BME280;17770;45.966;13.632;2024-01-11T04:17:03;101458.84;;;14.41;61.83
31121;BME280;17770;45.966;13.632;2024-01-11T04:19:29;101445.00;;;14.41;61.50
31121;BME280;17770;45.966;13.632;2024-01-11T04:21:55;101446.69;;;14.42;61.92
31121;BME280;17770;45.966;13.632;2024-01-11T04:24:21;101447.56;;;14.42;61.59
31121;BME280;17770;45.966;13.632;2024-01-11T04:26:47;101447.59;;;14.41;61.49
31121;BME280;17770;45.966;13.632;2024-01-11T04:29:12;101443.28;;;14.39;61.68
31121;BME280;17770;45.966;13.632;2024-01-11T04:31:38;101454.53;;;14.40;61.35
31121;BME280;17770;45.966;13.632;2024-01-11T04:34:04;101450.19;;;14.41;61.58
31121;BME280;17770;45.966;13.632;2024-01-11T04:36:30;101445.06;;;14.39;61.46
31121;BME280;17770;45.966;13.632;2024-01-11T04:38:56;101440.72;;;14.38;61.59
31121;BME280;17770;45.966;13.632;2024-01-11T04:41:22;101447.69;;;14.38;61.73
31121;BME280;17770;45.966;13.632;2024-01-11T04:43:47;101449.44;;;14.37;61.86
31121;BME280;17770;45.966;13.632;2024-01-11T04:46:17;101450.34;;;14.36;61.73
31121;BME280;17770;45.966;13.632;2024-01-11T04:48:43;101441.63;;;14.37;61.55
31121;BME280;17770;45.966;13.632;2024-01-11T04:51:09;101437.38;;;14.34;62.11
31121;BME280;17770;45.966;13.632;2024-01-11T04:53:36;101430.53;;;14.32;61.34
31121;BME280;17770;45.966;13.632;2024-01-11T04:56:02;101436.69;;;14.29;61.45
31121;BME280;17770;45.966;13.632;2024-01-11T04:58:28;101438.50;;;14.26;61.40
31121;BME280;17770;45.966;13.632;2024-01-11T05:00:58;101438.50;;;14.24;61.44
31121;BME280;17770;45.966;13.632;2024-01-11T05:03:24;101434.25;;;14.22;61.50
31121;BME280;17770;45.966;13.632;2024-01-11T05:05:50;101436.00;;;14.20;61.57
31121;BME280;17770;45.966;13.632;2024-01-11T05:08:16;101428.28;;;14.18;61.62
31121;BME280;17770;45.966;13.632;2024-01-11T05:10:42;101430.03;;;14.18;61.76
31121;BME280;17770;45.966;13.632;2024-01-11T05:13:08;101431.00;;;14.14;61.48
31121;BME280;17770;45.966;13.632;2024-01-11T05:15:34;101427.53;;;14.13;61.25
31121;BME280;17770;45.966;13.632;2024-01-11T05:18:00;101432.81;;;14.10;61.20
31121;BME280;17770;45.966;13.632;2024-01-11T05:20:26;101426.72;;;14.11;61.28
31121;BME280;17770;45.966;13.632;2024-01-11T05:22:52;101424.28;;;14.07;61.27
31121;BME280;17770;45.966;13.632;2024-01-11T05:25:17;101426.88;;;14.07;61.10
31121;BME280;17770;45.966;13.632;2024-01-11T05:27:43;101423.44;;;14.05;61.26
31121;BME280;17770;45.966;13.632;2024-01-11T05:30:09;101427.81;;;14.04;60.92
31121;BME280;17770;45.966;13.632;2024-01-11T05:32:35;101427.91;;;14.01;61.52
31121;BME280;17770;45.966;13.632;2024-01-11T05:35:01;101423.53;;;14.02;61.10
31121;BME280;17770;45.966;13.632;2024-01-11T05:37:27;101427.91;;;14.00;61.23
31121;BME280;17770;45.966;13.632;2024-01-11T05:39:53;101430.53;;;13.98;61.11
31121;BME280;17770;45.966;13.632;2024-01-11T05:42:20;101426.25;;;13.97;61.23
31121;BME280;17770;45.966;13.632;2024-01-11T05:44:45;101427.16;;;13.96;61.24
31121;BME280;17770;45.966;13.632;2024-01-11T05:47:11;101429.78;;;13.95;61.44
31121;BME280;17770;45.966;13.632;2024-01-11T05:49:37;101427.22;;;13.93;61.07
31121;BME280;17770;45.966;13.632;2024-01-11T05:52:05;101428.13;;;13.92;61.06
31121;BME280;17770;45.966;13.632;2024-01-11T05:54:41;101424.66;;;13.92;61.33
31121;BME280;17770;45.966;13.632;2024-01-11T05:57:07;101435.09;;;13.90;61.30
31121;BME280;17770;45.966;13.632;2024-01-11T05:59:33;101436.00;;;13.89;60.94
31121;BME280;17770;45.966;13.632;2024-01-11T06:01:59;101438.63;;;13.88;61.14
31121;BME280;17770;45.966;13.632;2024-01-11T06:04:26;101434.34;;;13.85;60.70
31121;BME280;17770;45.966;13.632;2024-01-11T06:06:52;101433.53;;;13.85;61.32
31121;BME280;17770;45.966;13.632;2024-01-11T06:09:18;101427.47;;;13.84;60.82
31121;BME280;17770;45.966;13.632;2024-01-11T06:11:44;101424.88;;;13.84;61.28
31121;BME280;17770;45.966;13.632;2024-01-11T06:14:10;101430.09;;;13.83;61.03
31121;BME280;17770;45.966;13.632;2024-01-11T06:16:35;101423.19;;;13.82;60.86
31121;BME280;17770;45.966;13.632;2024-01-11T06:19:02;101417.19;;;13.81;61.15
31121;BME280;17770;45.966;13.632;2024-01-11T06:21:27;101425.84;;;13.80;60.98
31121;BME280;17770;45.966;13.632;2024-01-11T06:23:54;101429.38;;;13.78;61.09
31121;BME280;17770;45.966;13.632;2024-01-11T06:26:19;101426.78;;;13.78;61.17
31121;BME280;17770;45.966;13.632;2024-01-11T06:28:45;101425.06;;;13.78;60.45
31121;BME280;17770;45.966;13.632;2024-01-11T06:31:11;101420.72;;;13.77;60.73
31121;BME280;17770;45.966;13.632;2024-01-11T06:33:37;101424.22;;;13.76;60.79
31121;BME280;17770;45.966;13.632;2024-01-11T06:36:06;101428.56;;;13.76;61.08
31121;BME280;17770;45.966;13.632;2024-01-11T06:38:33;101423.38;;;13.76;60.87
31121;BME280;17770;45.966;13.632;2024-01-11T06:41:01;101425.09;;;13.75;60.51
31121;BME280;17770;45.966;13.632;2024-01-11T06:43:27;101425.19;;;13.72;60.79
31121;BME280;17770;45.966;13.632;2024-01-11T06:45:53;101425.19;;;13.72;60.88
31121;BME280;17770;45.966;13.632;2024-01-11T06:48:19;101424.31;;;13.72;60.68
31121;BME280;17770;45.966;13.632;2024-01-11T06:50:45;101419.13;;;13.72;60.66
31121;BME280;17770;45.966;13.632;2024-01-11T06:53:11;101414.81;;;13.72;60.52
31121;BME280;17770;45.966;13.632;2024-01-11T06:55:37;101423.53;;;13.70;60.52
31121;BME280;17770;45.966;13.632;2024-01-11T06:58:03;101414.91;;;13.69;60.77
31121;BME280;17770;45.966;13.632;2024-01-11T07:00:29;101426.13;;;13.70;60.50
31121;BME280;17770;45.966;13.632;2024-01-11T07:02:54;101420.97;;;13.68;60.31
31121;BME280;17770;45.966;13.632;2024-01-11T07:05:20;101428.75;;;13.68;60.49
31121;BME280;17770;45.966;13.632;2024-01-11T07:07:46;101421.00;;;13.67;60.24
31121;BME280;17770;45.966;13.632;2024-01-11T07:10:12;101427.91;;;13.68;60.58
31121;BME280;17770;45.966;13.632;2024-01-11T07:12:38;101431.38;;;13.67;60.23
31121;BME280;17770;45.966;13.632;2024-01-11T07:15:06;101429.66;;;13.66;59.97
31121;BME280;17770;45.966;13.632;2024-01-11T07:17:33;101427.94;;;13.66;60.62
31121;BME280;17770;45.966;13.632;2024-01-11T07:19:59;101422.81;;;13.65;60.23
31121;BME280;17770;45.966;13.632;2024-01-11T07:22:25;101425.38;;;13.65;60.13
31121;BME280;17770;45.966;13.632;2024-01-11T07:24:51;101424.53;;;13.64;60.65
31121;BME280;17770;45.966;13.632;2024-01-11T07:27:17;101427.13;;;13.64;60.18
31121;BME280;17770;45.966;13.632;2024-01-11T07:29:43;101415.84;;;13.65;60.20
31121;BME280;17770;45.966;13.632;2024-01-11T07:32:09;101409.88;;;13.63;59.99
31121;BME280;17770;45.966;13.632;2024-01-11T07:34:35;101421.97;;;13.63;60.34
31121;BME280;17770;45.966;13.632;2024-01-11T07:37:02;101413.34;;;13.62;60.60
31121;BME280;17770;45.966;13.632;2024-01-11T07:39:28;101416.78;;;13.63;59.66
31121;BME280;17770;45.966;13.632;2024-01-11T07:41:54;101420.28;;;13.62;60.33
31121;BME280;17770;45.966;13.632;2024-01-11T07:44:20;101415.13;;;13.60;60.08
31121;BME280;17770;45.966;13.632;2024-01-11T07:46:46;101418.56;;;13.61;60.38
31121;BME280;17770;45.966;13.632;2024-01-11T07:49:12;101412.53;;;13.60;59.79
31121;BME280;17770;45.966;13.632;2024-01-11T07:51:38;101422.88;;;13.60;59.60
31121;BME280;17770;45.966;13.632;2024-01-11T07:54:04;101417.72;;;13.60;59.85
31121;BME280;17770;45.966;13.632;2024-01-11T07:56:30;101416.03;;;13.59;59.82
31121;BME280;17770;45.966;13.632;2024-01-11T07:58:56;101421.16;;;13.61;59.74
31121;BME280;17770;45.966;13.632;2024-01-11T08:01:22;101413.44;;;13.59;60.12
31121;BME280;17770;45.966;13.632;2024-01-11T08:03:48;101413.47;;;13.58;59.69
31121;BME280;17770;45.966;13.632;2024-01-11T08:06:17;101412.56;;;13.59;59.44
31121;BME280;17770;45.966;13.632;2024-01-11T08:08:43;101404.84;;;13.57;59.94
31121;BME280;17770;45.966;13.632;2024-01-11T08:11:09;101416.03;;;13.59;59.54
31121;BME280;17770;45.966;13.632;2024-01-11T08:13:37;101418.66;;;13.58;59.92
31121;BME280;17770;45.966;13.632;2024-01-11T08:16:04;101413.47;;;13.58;59.93
31121;BME280;17770;45.966;13.632;2024-01-11T08:18:30;101417.78;;;13.57;59.60
31121;BME280;17770;45.966;13.632;2024-01-11T08:20:56;101416.09;;;13.56;59.94
31121;BME280;17770;45.966;13.632;2024-01-11T08:23:22;101423.00;;;13.56;59.76
31121;BME280;17770;45.966;13.632;2024-01-11T08:25:49;101420.47;;;13.54;59.76
31121;BME280;17770;45.966;13.632;2024-01-11T08:28:15;101429.09;;;13.55;59.55
31121;BME280;17770;45.966;13.632;2024-01-11T08:30:41;101419.56;;;13.55;59.99
31121;BME280;17770;45.966;13.632;2024-01-11T08:33:08;101412.69;;;13.54;59.65
31121;BME280;17770;45.966;13.632;2024-01-11T08:35:34;101413.53;;;13.55;59.59
31121;BME280;17770;45.966;13.632;2024-01-11T08:38:00;101408.44;;;13.52;59.87
31121;BME280;17770;45.966;13.632;2024-01-11T08:40:27;101405.81;;;13.53;59.68
31121;BME280;17770;45.966;13.632;2024-01-11T08:42:53;101413.59;;;13.53;59.37
31121;BME280;17770;45.966;13.632;2024-01-11T08:45:19;101408.44;;;13.52;59.73
31121;BME280;17770;45.966;13.632;2024-01-11T08:47:45;101399.84;;;13.50;59.72
31121;BME280;17770;45.966;13.632;2024-01-11T08:50:14;101400.72;;;13.50;59.45
31121;BME280;17770;45.966;13.632;2024-01-11T08:52:41;101409.34;;;13.49;59.35
31121;BME280;17770;45.966;13.632;2024-01-11T08:55:07;101406.72;;;13.51;59.67
31121;BME280;17770;45.966;13.632;2024-01-11T08:57:33;101400.72;;;13.49;59.36
31121;BME280;17770;45.966;13.632;2024-01-11T09:00:04;101401.59;;;13.49;59.69
31121;BME280;17770;45.966;13.632;2024-01-11T09:02:32;101400.72;;;13.49;59.61
31121;BME280;17770;45.966;13.632;2024-01-11T09:04:57;101391.25;;;13.48;59.59
31121;BME280;17770;45.966;13.632;2024-01-11T09:07:23;101397.31;;;13.48;59.53
31121;BME280;17770;45.966;13.632;2024-01-11T09:09:49;101407.72;;;13.47;59.43
31121;BME280;17770;45.966;13.632;2024-01-11T09:12:15;101413.75;;;13.46;59.72
31121;BME280;17770;45.966;13.632;2024-01-11T09:14:41;101405.97;;;13.46;59.64
31121;BME280;17770;45.966;13.632;2024-01-11T09:17:07;101401.66;;;13.46;59.29
31121;BME280;17770;45.966;13.632;2024-01-11T09:19:33;101395.63;;;13.46;59.60
31121;BME280;17770;45.966;13.632;2024-01-11T09:22:00;101395.63;;;13.46;59.22
31121;BME280;17770;45.966;13.632;2024-01-11T09:24:25;101402.56;;;13.44;59.04
31121;BME280;17770;45.966;13.632;2024-01-11T09:26:51;101407.75;;;13.44;59.22
31121;BME280;17770;45.966;13.632;2024-01-11T09:29:17;101405.16;;;13.45;59.24
31121;BME280;17770;45.966;13.632;2024-01-11T09:31:43;101408.63;;;13.44;59.24
31121;BME280;17770;45.966;13.632;2024-01-11T09:34:10;101402.69;;;13.39;60.43
31121;BME280;17770;45.966;13.632;2024-01-11T09:36:36;101396.75;;;13.69;60.98
31121;BME280;17770;45.966;13.632;2024-01-11T09:39:04;101388.81;;;13.75;60.85
31121;BME280;17770;45.966;13.632;2024-01-11T09:41:31;101392.38;;;13.71;59.82
31121;BME280;17770;45.966;13.632;2024-01-11T09:43:57;101389.06;;;13.66;59.64
31121;BME280;17770;45.966;13.632;2024-01-11T09:46:25;101384.00;;;13.60;59.91
31121;BME280;17770;45.966;13.632;2024-01-11T09:48:51;101380.69;;;13.57;59.85
31121;BME280;17770;45.966;13.632;2024-01-11T09:51:17;101379.84;;;13.55;59.55
31121;BME280;17770;45.966;13.632;2024-01-11T09:53:43;101374.72;;;13.53;59.33
31121;BME280;17770;45.966;13.632;2024-01-11T09:56:09;101378.22;;;13.51;59.33
31121;BME280;17770;45.966;13.632;2024-01-11T09:58:36;101362.72;;;13.49;59.22
31121;BME280;17770;45.966;13.632;2024-01-11T10:01:02;101365.31;;;13.49;59.59
31121;BME280;17770;45.966;13.632;2024-01-11T10:03:28;101361.84;;;13.49;59.33
31121;BME280;17770;45.966;13.632;2024-01-11T10:05:57;101368.84;;;13.47;59.85
31121;BME280;17770;45.966;13.632;2024-01-11T10:08:23;101362.78;;;13.46;58.97
31121;BME280;17770;45.966;13.632;2024-01-11T10:10:49;101361.94;;;13.46;59.48
31121;BME280;17770;45.966;13.632;2024-01-11T10:13:15;101355.94;;;13.44;59.14
31121;BME280;17770;45.966;13.632;2024-01-11T10:15:44;101355.09;;;13.43;59.04
31121;BME280;17770;45.966;13.632;2024-01-11T10:18:10;101347.34;;;13.43;59.62
31121;BME280;17770;45.966;13.632;2024-01-11T10:20:37;101342.19;;;13.42;59.13
31121;BME280;17770;45.966;13.632;2024-01-11T10:23:03;101345.63;;;13.42;59.44
31121;BME280;17770;45.966;13.632;2024-01-11T10:25:29;101343.91;;;13.41;59.00
31121;BME280;17770;45.966;13.632;2024-01-11T10:27:55;101343.06;;;13.41;58.91
31121;BME280;17770;45.966;13.632;2024-01-11T10:30:20;101343.91;;;13.41;58.97
31121;BME280;17770;45.966;13.632;2024-01-11T10:32:48;101341.34;;;13.41;59.40
31121;BME280;17770;45.966;13.632;2024-01-11T10:35:14;101329.31;;;13.39;58.98
31121;BME280;17770;45.966;13.632;2024-01-11T10:37:40;101330.09;;;13.41;59.17
31121;BME280;17770;45.966;13.632;2024-01-11T10:40:07;101326.72;;;13.39;59.17
31121;BME280;17770;45.966;13.632;2024-01-11T10:42:41;101323.31;;;13.37;58.79
31121;BME280;17770;45.966;13.632;2024-01-11T10:45:17;101315.56;;;13.37;58.54
31121;BME280;17770;45.966;13.632;2024-01-11T10:47:50;101312.09;;;13.36;58.77
31121;BME280;17770;45.966;13.632;2024-01-11T10:50:20;101313.84;;;13.36;59.21
31121;BME280;17770;45.966;13.632;2024-01-11T10:52:56;101307.81;;;13.35;59.41
31121;BME280;17770;45.966;13.632;2024-01-11T10:55:27;101302.69;;;13.34;59.07
31121;BME280;17770;45.966;13.632;2024-01-11T10:57:53;101306.00;;;13.37;58.75
31121;BME280;17770;45.966;13.632;2024-01-11T11:00:20;101296.59;;;13.35;59.13
31121;BME280;17770;45.966;13.632;2024-01-11T11:02:48;101287.97;;;13.34;58.78
31121;BME280;17770;45.966;13.632;2024-01-11T11:05:16;101292.31;;;13.34;58.78
31121;BME280;17770;45.966;13.632;2024-01-11T11:07:43;101292.34;;;13.32;58.80
31121;BME280;17770;45.966;13.632;2024-01-11T11:10:10;101288.88;;;13.33;58.81
31121;BME280;17770;45.966;13.632;2024-01-11T11:12:37;101284.56;;;13.34;58.70
31121;BME280;17770;45.966;13.632;2024-01-11T11:15:04;101283.69;;;13.33;58.93
31121;BME280;17770;45.966;13.632;2024-01-11T11:17:31;101279.38;;;13.32;58.54
31121;BME280;17770;45.966;13.632;2024-01-11T11:19:57;101275.09;;;13.31;58.61
31121;BME280;17770;45.966;13.632;2024-01-11T11:22:26;101268.22;;;13.30;58.53
31121;BME280;17770;45.966;13.632;2024-01-11T11:25:23;101269.91;;;13.31;58.87
31121;BME280;17770;45.966;13.632;2024-01-11T11:27:38;101260.47;;;13.30;58.48
31121;BME280;17770;45.966;13.632;2024-01-11T11:30:04;101257.88;;;13.30;59.01
31121;BME280;17770;45.966;13.632;2024-01-11T11:32:35;101253.56;;;13.29;58.42
31121;BME280;17770;45.966;13.632;2024-01-11T11:35:01;101244.09;;;13.28;58.85
31121;BME280;17770;45.966;13.632;2024-01-11T11:37:29;101238.91;;;13.28;58.63
31121;BME280;17770;45.966;13.632;2024-01-11T11:39:55;101239.78;;;13.27;59.19
31121;BME280;17770;45.966;13.632;2024-01-11T11:42:22;101233.75;;;13.28;59.13
31121;BME280;17770;45.966;13.632;2024-01-11T11:44:49;101227.69;;;13.28;58.67
31121;BME280;17770;45.966;13.632;2024-01-11T11:47:19;101213.06;;;13.27;59.32
31121;BME280;17770;45.966;13.632;2024-01-11T11:50:04;101212.19;;;13.26;58.55
31121;BME280;17770;45.966;13.632;2024-01-11T11:52:34;101212.19;;;13.26;58.60
31121;BME280;17770;45.966;13.632;2024-01-11T11:55:01;101201.84;;;13.26;58.59
31121;BME280;17770;45.966;13.632;2024-01-11T11:57:27;101200.16;;;13.25;58.94
31121;BME280;17770;45.966;13.632;2024-01-11T11:59:56;101200.97;;;13.26;58.54
31121;BME280;17770;45.966;13.632;2024-01-11T12:02:26;101197.56;;;13.25;58.59
31121;BME280;17770;45.966;13.632;2024-01-11T12:04:53;101201.03;;;13.24;59.07
31121;BME280;17770;45.966;13.632;2024-01-11T12:07:22;101198.44;;;13.24;59.07
31121;BME280;17770;45.966;13.632;2024-01-11T12:09:49;101202.78;;;13.24;58.60
31121;BME280;17770;45.966;13.632;2024-01-11T12:12:15;101196.75;;;13.23;58.23
31121;BME280;17770;45.966;13.632;2024-01-11T12:14:43;101188.06;;;13.24;59.41
31121;BME280;17770;45.966;13.632;2024-01-11T12:17:09;101182.91;;;13.24;58.61
31121;BME280;17770;45.966;13.632;2024-01-11T12:19:35;101179.53;;;13.22;58.63
31121;BME280;17770;45.966;13.632;2024-01-11T12:22:00;101176.06;;;13.22;58.96
31121;BME280;17770;45.966;13.632;2024-01-11T12:24:27;101167.44;;;13.21;58.79
31121;BME280;17770;45.966;13.632;2024-01-11T12:26:56;101172.59;;;13.23;58.61
31121;BME280;17770;45.966;13.632;2024-01-11T12:29:23;101158.81;;;13.21;58.87
31121;BME280;17770;45.966;13.632;2024-01-11T12:31:52;101150.22;;;13.20;58.66
31121;BME280;17770;45.966;13.632;2024-01-11T12:34:18;101147.63;;;13.20;58.96
31121;BME280;17770;45.966;13.632;2024-01-11T12:36:43;101136.38;;;13.21;58.75